sensor_id;sensor_type;location;lat;lon;timestamp;P1;durP1;ratioP1;P2;durP2;ratioP2
37641;SDS011;23486;51.956;5.888;2023-09-30T00:01:02;8.35;;;2.10;;
37641;SDS011;23486;51.956;5.888;2023-09-30T00:03:28;7.85;;;2.15;;
37641;SDS011;23486;51.956;5.888;2023-09-30T00:05:53;8.48;;;2.05;;
37641;SDS011;23486;51.956;5.888;2023-09-30T00:08:19;9.15;;;2.30;;
37641;SDS011;23486;51.956;5.888;2023-09-30T00:10:44;8.52;;;1.80;;
37641;SDS011;23486;51.956;5.888;2023-09-30T00:13:11;8.18;;;2.20;;
37641;SDS011;23486;51.956;5.888;2023-09-30T00:15:37;5.38;;;1.67;;
37641;SDS011;23486;51.956;5.888;2023-09-30T00:18:03;7.93;;;1.95;;
37641;SDS011;23486;51.956;5.888;2023-09-30T00:20:29;9.40;;;2.10;;
37641;SDS011;23486;51.956;5.888;2023-09-30T00:22:54;7.05;;;2.17;;
37641;SDS011;23486;51.956;5.888;2023-09-30T00:25:20;8.00;;;1.80;;
37641;SDS011;23486;51.956;5.888;2023-09-30T00:27:46;9.35;;;2.88;;
37641;SDS011;23486;51.956;5.888;2023-09-30T00:30:12;4.75;;;1.42;;
37641;SDS011;23486;51.956;5.888;2023-09-30T00:32:38;12.52;;;2.25;;
37641;SDS011;23486;51.956;5.888;2023-09-30T00:35:04;7.03;;;2.05;;
37641;SDS011;23486;51.956;5.888;2023-09-30T00:37:36;6.72;;;1.88;;
37641;SDS011;23486;51.956;5.888;2023-09-30T00:40:05;7.57;;;1.80;;
37641;SDS011;23486;51.956;5.888;2023-09-30T00:42:32;10.05;;;2.30;;
37641;SDS011;23486;51.956;5.888;2023-09-30T00:45:01;8.25;;;2.08;;
37641;SDS011;23486;51.956;5.888;2023-09-30T00:47:30;6.30;;;1.70;;
37641;SDS011;23486;51.956;5.888;2023-09-30T00:49:56;7.93;;;1.98;;
37641;SDS011;23486;51.956;5.888;2023-09-30T00:52:21;8.25;;;1.63;;
37641;SDS011;23486;51.956;5.888;2023-09-30T00:54:47;7.28;;;1.65;;
37641;SDS011;23486;51.956;5.888;2023-09-30T00:57:14;7.68;;;1.85;;
37641;SDS011;23486;51.956;5.888;2023-09-30T00:59:41;8.00;;;2.35;;
37641;SDS011;23486;51.956;5.888;2023-09-30T01:02:07;6.32;;;2.17;;
37641;SDS011;23486;51.956;5.888;2023-09-30T01:04:36;7.35;;;1.98;;
37641;SDS011;23486;51.956;5.888;2023-09-30T01:07:03;9.88;;;2.03;;
37641;SDS011;23486;51.956;5.888;2023-09-30T01:09:30;6.40;;;1.95;;
37641;SDS011;23486;51.956;5.888;2023-09-30T01:11:56;8.00;;;2.00;;
37641;SDS011;23486;51.956;5.888;2023-09-30T01:16:50;7.88;;;2.25;;
37641;SDS011;23486;51.956;5.888;2023-09-30T01:19:15;8.27;;;2.20;;
37641;SDS011;23486;51.956;5.888;2023-09-30T01:21:41;7.65;;;2.28;;
37641;SDS011;23486;51.956;5.888;2023-09-30T01:24:16;6.25;;;2.22;;
37641;SDS011;23486;51.956;5.888;2023-09-30T01:26:42;10.10;;;2.15;;
37641;SDS011;23486;51.956;5.888;2023-09-30T01:29:08;10.48;;;2.80;;
37641;SDS011;23486;51.956;5.888;2023-09-30T01:31:37;8.75;;;2.25;;
37641;SDS011;23486;51.956;5.888;2023-09-30T01:34:03;7.07;;;1.90;;
37641;SDS011;23486;51.956;5.888;2023-09-30T01:36:29;7.53;;;3.00;;
37641;SDS011;23486;51.956;5.888;2023-09-30T01:38:54;6.38;;;1.63;;
37641;SDS011;23486;51.956;5.888;2023-09-30T01:41:20;9.85;;;2.13;;
37641;SDS011;23486;51.956;5.888;2023-09-30T01:43:46;7.20;;;2.45;;
37641;SDS011;23486;51.956;5.888;2023-09-30T01:46:12;12.45;;;2.25;;
37641;SDS011;23486;51.956;5.888;2023-09-30T01:48:37;8.30;;;2.38;;
37641;SDS011;23486;51.956;5.888;2023-09-30T01:51:03;6.97;;;1.77;;
37641;SDS011;23486;51.956;5.888;2023-09-30T01:53:29;4.90;;;1.63;;
37641;SDS011;23486;51.956;5.888;2023-09-30T01:55:55;9.48;;;2.55;;
37641;SDS011;23486;51.956;5.888;2023-09-30T01:58:20;5.95;;;2.03;;
37641;SDS011;23486;51.956;5.888;2023-09-30T02:00:46;6.88;;;2.58;;
37641;SDS011;23486;51.956;5.888;2023-09-30T02:03:11;6.88;;;2.15;;
37641;SDS011;23486;51.956;5.888;2023-09-30T02:05:38;7.93;;;2.22;;
37641;SDS011;23486;51.956;5.888;2023-09-30T02:08:04;9.27;;;3.22;;
37641;SDS011;23486;51.956;5.888;2023-09-30T02:10:30;6.78;;;2.40;;
37641;SDS011;23486;51.956;5.888;2023-09-30T02:12:58;8.90;;;2.80;;
37641;SDS011;23486;51.956;5.888;2023-09-30T02:15:30;10.88;;;3.42;;
37641;SDS011;23486;51.956;5.888;2023-09-30T02:17:56;8.30;;;3.03;;
37641;SDS011;23486;51.956;5.888;2023-09-30T02:20:22;7.60;;;3.35;;
37641;SDS011;23486;51.956;5.888;2023-09-30T02:22:51;9.18;;;3.22;;
37641;SDS011;23486;51.956;5.888;2023-09-30T02:25:17;9.80;;;2.97;;
37641;SDS011;23486;51.956;5.888;2023-09-30T02:27:43;5.68;;;2.33;;
37641;SDS011;23486;51.956;5.888;2023-09-30T02:30:10;7.20;;;2.67;;
37641;SDS011;23486;51.956;5.888;2023-09-30T02:32:41;8.02;;;2.25;;
37641;SDS011;23486;51.956;5.888;2023-09-30T02:35:07;10.30;;;2.85;;
37641;SDS011;23486;51.956;5.888;2023-09-30T02:37:36;9.05;;;3.22;;
37641;SDS011;23486;51.956;5.888;2023-09-30T02:40:02;8.45;;;3.15;;
37641;SDS011;23486;51.956;5.888;2023-09-30T02:42:30;10.63;;;3.38;;
37641;SDS011;23486;51.956;5.888;2023-09-30T02:44:56;9.45;;;4.07;;
37641;SDS011;23486;51.956;5.888;2023-09-30T02:47:24;8.43;;;3.53;;
37641;SDS011;23486;51.956;5.888;2023-09-30T02:49:49;9.60;;;3.72;;
37641;SDS011;23486;51.956;5.888;2023-09-30T02:52:15;8.68;;;3.67;;
37641;SDS011;23486;51.956;5.888;2023-09-30T02:54:40;9.60;;;4.15;;
37641;SDS011;23486;51.956;5.888;2023-09-30T02:57:09;8.55;;;4.32;;
37641;SDS011;23486;51.956;5.888;2023-09-30T02:59:35;8.30;;;3.67;;
37641;SDS011;23486;51.956;5.888;2023-09-30T03:02:01;7.82;;;4.53;;
37641;SDS011;23486;51.956;5.888;2023-09-30T03:04:28;7.68;;;3.78;;
37641;SDS011;23486;51.956;5.888;2023-09-30T03:06:53;7.60;;;4.03;;
37641;SDS011;23486;51.956;5.888;2023-09-30T03:09:21;8.73;;;4.10;;
37641;SDS011;23486;51.956;5.888;2023-09-30T03:11:47;13.13;;;4.20;;
37641;SDS011;23486;51.956;5.888;2023-09-30T03:14:13;13.48;;;4.95;;
37641;SDS011;23486;51.956;5.888;2023-09-30T03:16:39;10.98;;;4.95;;
37641;SDS011;23486;51.956;5.888;2023-09-30T03:19:06;12.65;;;5.95;;
37641;SDS011;23486;51.956;5.888;2023-09-30T03:21:33;9.68;;;4.95;;
37641;SDS011;23486;51.956;5.888;2023-09-30T03:24:02;9.05;;;4.90;;
37641;SDS011;23486;51.956;5.888;2023-09-30T03:26:29;10.90;;;5.85;;
37641;SDS011;23486;51.956;5.888;2023-09-30T03:28:55;10.73;;;4.80;;
37641;SDS011;23486;51.956;5.888;2023-09-30T03:31:21;14.23;;;5.90;;
37641;SDS011;23486;51.956;5.888;2023-09-30T03:33:47;9.63;;;5.25;;
37641;SDS011;23486;51.956;5.888;2023-09-30T03:36:19;16.58;;;5.63;;
37641;SDS011;23486;51.956;5.888;2023-09-30T03:38:45;12.30;;;5.82;;
37641;SDS011;23486;51.956;5.888;2023-09-30T03:41:11;10.60;;;5.35;;
37641;SDS011;23486;51.956;5.888;2023-09-30T03:43:38;15.27;;;6.57;;
37641;SDS011;23486;51.956;5.888;2023-09-30T03:46:06;12.88;;;6.07;;
37641;SDS011;23486;51.956;5.888;2023-09-30T03:48:37;13.35;;;6.30;;
37641;SDS011;23486;51.956;5.888;2023-09-30T03:51:22;9.02;;;5.93;;
37641;SDS011;23486;51.956;5.888;2023-09-30T03:53:50;8.93;;;4.97;;
37641;SDS011;23486;51.956;5.888;2023-09-30T03:56:16;11.93;;;5.90;;
37641;SDS011;23486;51.956;5.888;2023-09-30T03:58:43;9.63;;;5.43;;
37641;SDS011;23486;51.956;5.888;2023-09-30T04:01:10;13.00;;;5.65;;
37641;SDS011;23486;51.956;5.888;2023-09-30T04:03:41;10.90;;;6.13;;
37641;SDS011;23486;51.956;5.888;2023-09-30T04:06:08;10.35;;;6.28;;
37641;SDS011;23486;51.956;5.888;2023-09-30T04:08:34;9.32;;;5.47;;
37641;SDS011;23486;51.956;5.888;2023-09-30T04:11:00;15.10;;;6.70;;
37641;SDS011;23486;51.956;5.888;2023-09-30T04:13:28;11.52;;;6.55;;
37641;SDS011;23486;51.956;5.888;2023-09-30T04:15:54;11.45;;;6.45;;
37641;SDS011;23486;51.956;5.888;2023-09-30T04:18:20;17.40;;;6.93;;
37641;SDS011;23486;51.956;5.888;2023-09-30T04:20:47;13.52;;;7.22;;
37641;SDS011;23486;51.956;5.888;2023-09-30T04:23:16;14.88;;;7.63;;
37641;SDS011;23486;51.956;5.888;2023-09-30T04:25:44;14.60;;;8.20;;
37641;SDS011;23486;51.956;5.888;2023-09-30T04:28:11;13.80;;;6.32;;
37641;SDS011;23486;51.956;5.888;2023-09-30T04:30:37;13.23;;;6.90;;
37641;SDS011;23486;51.956;5.888;2023-09-30T04:33:03;11.63;;;6.78;;
37641;SDS011;23486;51.956;5.888;2023-09-30T04:35:32;11.93;;;6.95;;
37641;SDS011;23486;51.956;5.888;2023-09-30T04:38:00;14.90;;;7.28;;
37641;SDS011;23486;51.956;5.888;2023-09-30T04:40:26;13.32;;;7.32;;
37641;SDS011;23486;51.956;5.888;2023-09-30T04:42:52;12.52;;;6.88;;
37641;SDS011;23486;51.956;5.888;2023-09-30T04:45:24;12.82;;;7.13;;
37641;SDS011;23486;51.956;5.888;2023-09-30T04:47:51;14.18;;;7.50;;
37641;SDS011;23486;51.956;5.888;2023-09-30T04:50:17;14.55;;;8.02;;
37641;SDS011;23486;51.956;5.888;2023-09-30T04:52:44;14.65;;;7.38;;
37641;SDS011;23486;51.956;5.888;2023-09-30T04:55:10;11.90;;;7.07;;
37641;SDS011;23486;51.956;5.888;2023-09-30T04:57:41;11.68;;;6.72;;
37641;SDS011;23486;51.956;5.888;2023-09-30T05:00:11;14.48;;;7.70;;
37641;SDS011;23486;51.956;5.888;2023-09-30T05:02:38;14.70;;;8.00;;
37641;SDS011;23486;51.956;5.888;2023-09-30T05:05:04;16.20;;;7.82;;
37641;SDS011;23486;51.956;5.888;2023-09-30T05:07:31;14.38;;;8.23;;
37641;SDS011;23486;51.956;5.888;2023-09-30T05:09:57;13.40;;;7.15;;
37641;SDS011;23486;51.956;5.888;2023-09-30T05:12:24;16.13;;;8.32;;
37641;SDS011;23486;51.956;5.888;2023-09-30T05:14:50;14.45;;;8.07;;
37641;SDS011;23486;51.956;5.888;2023-09-30T05:17:16;15.73;;;8.30;;
37641;SDS011;23486;51.956;5.888;2023-09-30T05:19:42;12.43;;;7.45;;
37641;SDS011;23486;51.956;5.888;2023-09-30T05:22:11;12.95;;;8.27;;
37641;SDS011;23486;51.956;5.888;2023-09-30T05:24:37;13.43;;;7.88;;
37641;SDS011;23486;51.956;5.888;2023-09-30T05:27:02;18.17;;;9.45;;
37641;SDS011;23486;51.956;5.888;2023-09-30T05:29:31;14.82;;;8.20;;
37641;SDS011;23486;51.956;5.888;2023-09-30T05:31:58;14.00;;;8.20;;
37641;SDS011;23486;51.956;5.888;2023-09-30T05:34:24;12.57;;;8.45;;
37641;SDS011;23486;51.956;5.888;2023-09-30T05:36:55;13.52;;;8.55;;
37641;SDS011;23486;51.956;5.888;2023-09-30T05:39:21;14.65;;;8.05;;
37641;SDS011;23486;51.956;5.888;2023-09-30T05:41:47;15.25;;;8.88;;
37641;SDS011;23486;51.956;5.888;2023-09-30T05:44:12;15.93;;;7.97;;
37641;SDS011;23486;51.956;5.888;2023-09-30T05:46:39;13.48;;;8.35;;
37641;SDS011;23486;51.956;5.888;2023-09-30T05:49:05;13.75;;;8.20;;
37641;SDS011;23486;51.956;5.888;2023-09-30T05:51:36;14.10;;;8.48;;
37641;SDS011;23486;51.956;5.888;2023-09-30T05:54:02;15.05;;;8.85;;
37641;SDS011;23486;51.956;5.888;2023-09-30T05:56:28;16.55;;;8.80;;
37641;SDS011;23486;51.956;5.888;2023-09-30T05:58:54;14.18;;;9.25;;
37641;SDS011;23486;51.956;5.888;2023-09-30T06:01:21;14.48;;;8.93;;
37641;SDS011;23486;51.956;5.888;2023-09-30T06:03:47;14.82;;;9.52;;
37641;SDS011;23486;51.956;5.888;2023-09-30T06:06:13;17.35;;;8.23;;
37641;SDS011;23486;51.956;5.888;2023-09-30T06:08:40;14.52;;;8.15;;
37641;SDS011;23486;51.956;5.888;2023-09-30T06:11:16;15.15;;;9.02;;
37641;SDS011;23486;51.956;5.888;2023-09-30T06:13:49;15.88;;;10.05;;
37641;SDS011;23486;51.956;5.888;2023-09-30T06:16:20;15.93;;;7.97;;
37641;SDS011;23486;51.956;5.888;2023-09-30T06:18:46;17.00;;;9.55;;
37641;SDS011;23486;51.956;5.888;2023-09-30T06:21:13;16.15;;;9.50;;
37641;SDS011;23486;51.956;5.888;2023-09-30T06:23:40;15.75;;;9.40;;
37641;SDS011;23486;51.956;5.888;2023-09-30T06:26:05;16.63;;;9.70;;
37641;SDS011;23486;51.956;5.888;2023-09-30T06:28:31;17.35;;;9.52;;
37641;SDS011;23486;51.956;5.888;2023-09-30T06:30:59;16.60;;;10.05;;
37641;SDS011;23486;51.956;5.888;2023-09-30T06:33:25;13.65;;;9.05;;
37641;SDS011;23486;51.956;5.888;2023-09-30T06:35:50;16.27;;;9.32;;
37641;SDS011;23486;51.956;5.888;2023-09-30T06:38:19;13.52;;;8.90;;
37641;SDS011;23486;51.956;5.888;2023-09-30T06:40:45;17.65;;;9.68;;
37641;SDS011;23486;51.956;5.888;2023-09-30T06:43:12;14.43;;;9.35;;
37641;SDS011;23486;51.956;5.888;2023-09-30T06:45:40;15.90;;;9.55;;
37641;SDS011;23486;51.956;5.888;2023-09-30T06:48:09;17.35;;;9.65;;
37641;SDS011;23486;51.956;5.888;2023-09-30T06:50:39;19.95;;;10.00;;
37641;SDS011;23486;51.956;5.888;2023-09-30T06:53:05;16.33;;;9.55;;
37641;SDS011;23486;51.956;5.888;2023-09-30T06:55:31;19.83;;;10.43;;
37641;SDS011;23486;51.956;5.888;2023-09-30T06:57:56;17.48;;;10.27;;
37641;SDS011;23486;51.956;5.888;2023-09-30T07:00:22;18.02;;;9.60;;
37641;SDS011;23486;51.956;5.888;2023-09-30T07:02:48;18.23;;;9.40;;
37641;SDS011;23486;51.956;5.888;2023-09-30T07:05:14;17.27;;;9.93;;
37641;SDS011;23486;51.956;5.888;2023-09-30T07:07:40;18.55;;;10.48;;
37641;SDS011;23486;51.956;5.888;2023-09-30T07:10:10;18.48;;;10.15;;
37641;SDS011;23486;51.956;5.888;2023-09-30T07:12:36;18.00;;;9.85;;
37641;SDS011;23486;51.956;5.888;2023-09-30T07:15:02;16.25;;;9.00;;
37641;SDS011;23486;51.956;5.888;2023-09-30T07:17:29;13.88;;;9.18;;
37641;SDS011;23486;51.956;5.888;2023-09-30T07:19:55;17.25;;;9.40;;
37641;SDS011;23486;51.956;5.888;2023-09-30T07:22:24;19.42;;;10.07;;
37641;SDS011;23486;51.956;5.888;2023-09-30T07:24:50;13.02;;;9.38;;
37641;SDS011;23486;51.956;5.888;2023-09-30T07:27:16;15.93;;;8.77;;
37641;SDS011;23486;51.956;5.888;2023-09-30T07:29:41;20.95;;;10.52;;
37641;SDS011;23486;51.956;5.888;2023-09-30T07:32:08;21.17;;;11.20;;
37641;SDS011;23486;51.956;5.888;2023-09-30T07:34:34;19.30;;;9.65;;
37641;SDS011;23486;51.956;5.888;2023-09-30T07:37:00;16.75;;;9.13;;
37641;SDS011;23486;51.956;5.888;2023-09-30T07:39:26;20.02;;;10.35;;
37641;SDS011;23486;51.956;5.888;2023-09-30T07:41:51;19.13;;;9.63;;
37641;SDS011;23486;51.956;5.888;2023-09-30T07:44:19;21.33;;;9.30;;
37641;SDS011;23486;51.956;5.888;2023-09-30T07:46:45;18.90;;;10.38;;
37641;SDS011;23486;51.956;5.888;2023-09-30T07:49:12;16.50;;;8.88;;
37641;SDS011;23486;51.956;5.888;2023-09-30T07:51:37;18.13;;;9.52;;
37641;SDS011;23486;51.956;5.888;2023-09-30T07:54:05;19.15;;;10.68;;
37641;SDS011;23486;51.956;5.888;2023-09-30T07:56:31;21.58;;;11.10;;
37641;SDS011;23486;51.956;5.888;2023-09-30T07:58:57;21.85;;;12.00;;
37641;SDS011;23486;51.956;5.888;2023-09-30T08:01:22;19.77;;;11.68;;
37641;SDS011;23486;51.956;5.888;2023-09-30T08:03:48;25.58;;;10.73;;
37641;SDS011;23486;51.956;5.888;2023-09-30T08:06:14;16.80;;;10.35;;
37641;SDS011;23486;51.956;5.888;2023-09-30T08:08:39;17.77;;;10.38;;
37641;SDS011;23486;51.956;5.888;2023-09-30T08:11:05;18.58;;;11.38;;
37641;SDS011;23486;51.956;5.888;2023-09-30T08:13:32;19.98;;;10.55;;
37641;SDS011;23486;51.956;5.888;2023-09-30T08:15:58;18.40;;;10.43;;
37641;SDS011;23486;51.956;5.888;2023-09-30T08:18:24;15.20;;;9.95;;
37641;SDS011;23486;51.956;5.888;2023-09-30T08:20:50;18.83;;;9.80;;
37641;SDS011;23486;51.956;5.888;2023-09-30T08:23:15;20.33;;;10.02;;
37641;SDS011;23486;51.956;5.888;2023-09-30T08:25:41;17.75;;;10.75;;
37641;SDS011;23486;51.956;5.888;2023-09-30T08:28:07;18.25;;;10.50;;
37641;SDS011;23486;51.956;5.888;2023-09-30T08:30:34;17.70;;;9.88;;
37641;SDS011;23486;51.956;5.888;2023-09-30T08:33:01;20.08;;;9.88;;
37641;SDS011;23486;51.956;5.888;2023-09-30T08:35:28;17.60;;;9.80;;
37641;SDS011;23486;51.956;5.888;2023-09-30T08:37:55;18.92;;;10.60;;
37641;SDS011;23486;51.956;5.888;2023-09-30T08:40:21;18.35;;;10.77;;
37641;SDS011;23486;51.956;5.888;2023-09-30T08:42:53;22.80;;;10.75;;
37641;SDS011;23486;51.956;5.888;2023-09-30T08:45:19;17.23;;;10.20;;
37641;SDS011;23486;51.956;5.888;2023-09-30T08:47:45;19.30;;;11.40;;
37641;SDS011;23486;51.956;5.888;2023-09-30T08:50:11;16.35;;;10.15;;
37641;SDS011;23486;51.956;5.888;2023-09-30T08:52:39;16.63;;;10.60;;
37641;SDS011;23486;51.956;5.888;2023-09-30T08:55:09;16.40;;;8.93;;
37641;SDS011;23486;51.956;5.888;2023-09-30T08:57:41;18.50;;;9.85;;
37641;SDS011;23486;51.956;5.888;2023-09-30T09:00:07;19.33;;;9.73;;
37641;SDS011;23486;51.956;5.888;2023-09-30T09:02:36;15.43;;;8.88;;
37641;SDS011;23486;51.956;5.888;2023-09-30T09:05:02;20.27;;;9.95;;
37641;SDS011;23486;51.956;5.888;2023-09-30T09:07:28;20.00;;;9.35;;
37641;SDS011;23486;51.956;5.888;2023-09-30T09:10:08;16.63;;;9.20;;
37641;SDS011;23486;51.956;5.888;2023-09-30T09:12:36;15.75;;;8.32;;
37641;SDS011;23486;51.956;5.888;2023-09-30T09:15:04;15.88;;;8.77;;
37641;SDS011;23486;51.956;5.888;2023-09-30T09:17:43;13.52;;;8.35;;
37641;SDS011;23486;51.956;5.888;2023-09-30T09:20:10;19.90;;;9.05;;
37641;SDS011;23486;51.956;5.888;2023-09-30T09:22:44;18.50;;;7.25;;
37641;SDS011;23486;51.956;5.888;2023-09-30T09:25:11;17.08;;;8.00;;
37641;SDS011;23486;51.956;5.888;2023-09-30T09:27:37;17.73;;;8.48;;
37641;SDS011;23486;51.956;5.888;2023-09-30T09:33:01;16.42;;;8.43;;
37641;SDS011;23486;51.956;5.888;2023-09-30T09:35:29;17.13;;;8.77;;
37641;SDS011;23486;51.956;5.888;2023-09-30T09:37:58;16.35;;;7.88;;
37641;SDS011;23486;51.956;5.888;2023-09-30T09:40:26;15.35;;;8.27;;
37641;SDS011;23486;51.956;5.888;2023-09-30T09:42:53;13.27;;;7.10;;
37641;SDS011;23486;51.956;5.888;2023-09-30T09:45:24;15.32;;;8.70;;
37641;SDS011;23486;51.956;5.888;2023-09-30T09:47:51;17.30;;;8.02;;
37641;SDS011;23486;51.956;5.888;2023-09-30T09:50:18;18.65;;;8.32;;
37641;SDS011;23486;51.956;5.888;2023-09-30T09:52:49;14.77;;;7.20;;
37641;SDS011;23486;51.956;5.888;2023-09-30T09:55:19;17.08;;;8.07;;
37641;SDS011;23486;51.956;5.888;2023-09-30T09:57:47;17.52;;;7.78;;
37641;SDS011;23486;51.956;5.888;2023-09-30T10:00:32;14.82;;;7.78;;
37641;SDS011;23486;51.956;5.888;2023-09-30T10:02:58;22.08;;;10.70;;
37641;SDS011;23486;51.956;5.888;2023-09-30T10:05:24;14.85;;;7.72;;
37641;SDS011;23486;51.956;5.888;2023-09-30T10:07:52;13.63;;;7.45;;
37641;SDS011;23486;51.956;5.888;2023-09-30T10:10:21;14.27;;;7.88;;
37641;SDS011;23486;51.956;5.888;2023-09-30T10:12:49;13.98;;;7.45;;
37641;SDS011;23486;51.956;5.888;2023-09-30T10:20:48;11.07;;;5.93;;
37641;SDS011;23486;51.956;5.888;2023-09-30T10:25:42;16.60;;;5.43;;
37641;SDS011;23486;51.956;5.888;2023-09-30T10:28:58;12.73;;;6.30;;
37641;SDS011;23486;51.956;5.888;2023-09-30T10:31:16;17.73;;;7.35;;
37641;SDS011;23486;51.956;5.888;2023-09-30T10:36:31;12.32;;;4.40;;
37641;SDS011;23486;51.956;5.888;2023-09-30T10:38:57;7.05;;;3.55;;
37641;SDS011;23486;51.956;5.888;2023-09-30T10:46:50;10.70;;;3.58;;
37641;SDS011;23486;51.956;5.888;2023-09-30T10:49:37;7.03;;;2.30;;
37641;SDS011;23486;51.956;5.888;2023-09-30T10:52:06;7.95;;;2.58;;
37641;SDS011;23486;51.956;5.888;2023-09-30T10:54:32;11.52;;;2.83;;
37641;SDS011;23486;51.956;5.888;2023-09-30T10:56:59;9.95;;;2.60;;
37641;SDS011;23486;51.956;5.888;2023-09-30T10:59:26;9.52;;;2.92;;
37641;SDS011;23486;51.956;5.888;2023-09-30T11:01:52;7.78;;;2.45;;
37641;SDS011;23486;51.956;5.888;2023-09-30T11:04:18;9.85;;;2.03;;
37641;SDS011;23486;51.956;5.888;2023-09-30T11:06:45;11.40;;;2.67;;
37641;SDS011;23486;51.956;5.888;2023-09-30T11:09:18;9.27;;;2.25;;
37641;SDS011;23486;51.956;5.888;2023-09-30T11:11:46;8.85;;;1.45;;
37641;SDS011;23486;51.956;5.888;2023-09-30T11:14:23;6.60;;;1.40;;
37641;SDS011;23486;51.956;5.888;2023-09-30T11:16:54;6.20;;;0.95;;
37641;SDS011;23486;51.956;5.888;2023-09-30T11:19:21;9.27;;;1.90;;
37641;SDS011;23486;51.956;5.888;2023-09-30T11:21:48;6.28;;;1.42;;
37641;SDS011;23486;51.956;5.888;2023-09-30T11:24:15;5.85;;;1.10;;
37641;SDS011;23486;51.956;5.888;2023-09-30T11:26:41;6.88;;;1.15;;
37641;SDS011;23486;51.956;5.888;2023-09-30T11:29:08;3.97;;;0.90;;
37641;SDS011;23486;51.956;5.888;2023-09-30T11:31:36;6.50;;;1.60;;
37641;SDS011;23486;51.956;5.888;2023-09-30T11:34:09;5.13;;;0.77;;
37641;SDS011;23486;51.956;5.888;2023-09-30T11:36:40;7.90;;;1.02;;
37641;SDS011;23486;51.956;5.888;2023-09-30T11:39:20;7.03;;;0.82;;
37641;SDS011;23486;51.956;5.888;2023-09-30T11:41:56;5.03;;;0.85;;
37641;SDS011;23486;51.956;5.888;2023-09-30T11:44:22;7.35;;;1.35;;
37641;SDS011;23486;51.956;5.888;2023-09-30T11:51:55;6.30;;;1.10;;
37641;SDS011;23486;51.956;5.888;2023-09-30T11:54:22;9.63;;;1.10;;
37641;SDS011;23486;51.956;5.888;2023-09-30T11:56:52;6.85;;;0.73;;
37641;SDS011;23486;51.956;5.888;2023-09-30T11:59:18;6.97;;;0.93;;
37641;SDS011;23486;51.956;5.888;2023-09-30T12:01:47;7.18;;;1.05;;
37641;SDS011;23486;51.956;5.888;2023-09-30T12:04:19;8.00;;;1.65;;
37641;SDS011;23486;51.956;5.888;2023-09-30T12:06:45;6.63;;;0.80;;
37641;SDS011;23486;51.956;5.888;2023-09-30T12:09:15;6.68;;;0.90;;
37641;SDS011;23486;51.956;5.888;2023-09-30T12:11:42;5.88;;;0.70;;
37641;SDS011;23486;51.956;5.888;2023-09-30T12:14:11;4.43;;;0.60;;
37641;SDS011;23486;51.956;5.888;2023-09-30T12:16:38;5.22;;;1.02;;
37641;SDS011;23486;51.956;5.888;2023-09-30T12:19:04;6.88;;;0.90;;
37641;SDS011;23486;51.956;5.888;2023-09-30T12:21:33;5.65;;;1.10;;
37641;SDS011;23486;51.956;5.888;2023-09-30T12:24:00;7.15;;;0.95;;
37641;SDS011;23486;51.956;5.888;2023-09-30T12:26:26;4.32;;;0.73;;
37641;SDS011;23486;51.956;5.888;2023-09-30T12:28:52;5.30;;;0.70;;
37641;SDS011;23486;51.956;5.888;2023-09-30T12:31:18;5.13;;;1.00;;
37641;SDS011;23486;51.956;5.888;2023-09-30T12:33:45;5.70;;;0.77;;
37641;SDS011;23486;51.956;5.888;2023-09-30T12:36:15;11.43;;;1.48;;
37641;SDS011;23486;51.956;5.888;2023-09-30T12:38:41;5.88;;;1.08;;
37641;SDS011;23486;51.956;5.888;2023-09-30T12:41:07;5.15;;;0.80;;
37641;SDS011;23486;51.956;5.888;2023-09-30T12:43:33;5.68;;;1.05;;
37641;SDS011;23486;51.956;5.888;2023-09-30T12:45:59;3.95;;;0.70;;
37641;SDS011;23486;51.956;5.888;2023-09-30T12:48:26;5.80;;;0.77;;
37641;SDS011;23486;51.956;5.888;2023-09-30T12:50:51;5.35;;;0.80;;
37641;SDS011;23486;51.956;5.888;2023-09-30T12:53:17;4.70;;;0.70;;
37641;SDS011;23486;51.956;5.888;2023-09-30T12:55:45;3.78;;;0.65;;
37641;SDS011;23486;51.956;5.888;2023-09-30T12:58:11;6.65;;;0.77;;
37641;SDS011;23486;51.956;5.888;2023-09-30T13:00:36;4.00;;;0.60;;
37641;SDS011;23486;51.956;5.888;2023-09-30T13:03:05;3.58;;;0.70;;
37641;SDS011;23486;51.956;5.888;2023-09-30T13:05:30;7.57;;;0.95;;
37641;SDS011;23486;51.956;5.888;2023-09-30T13:07:56;5.18;;;0.98;;
37641;SDS011;23486;51.956;5.888;2023-09-30T13:10:22;5.00;;;1.00;;
37641;SDS011;23486;51.956;5.888;2023-09-30T13:12:48;4.55;;;0.80;;
37641;SDS011;23486;51.956;5.888;2023-09-30T13:15:15;5.60;;;0.73;;
37641;SDS011;23486;51.956;5.888;2023-09-30T13:17:42;2.65;;;0.57;;
37641;SDS011;23486;51.956;5.888;2023-09-30T13:20:07;3.15;;;0.73;;
37641;SDS011;23486;51.956;5.888;2023-09-30T13:22:34;5.28;;;0.70;;
37641;SDS011;23486;51.956;5.888;2023-09-30T13:25:03;6.15;;;1.42;;
37641;SDS011;23486;51.956;5.888;2023-09-30T13:27:30;5.68;;;1.10;;
37641;SDS011;23486;51.956;5.888;2023-09-30T13:29:56;5.82;;;1.20;;
37641;SDS011;23486;51.956;5.888;2023-09-30T13:32:23;5.45;;;1.40;;
37641;SDS011;23486;51.956;5.888;2023-09-30T13:34:50;6.43;;;1.25;;
37641;SDS011;23486;51.956;5.888;2023-09-30T13:37:16;5.25;;;0.77;;
37641;SDS011;23486;51.956;5.888;2023-09-30T13:39:41;4.75;;;1.10;;
37641;SDS011;23486;51.956;5.888;2023-09-30T13:42:07;5.15;;;1.33;;
37641;SDS011;23486;51.956;5.888;2023-09-30T13:44:33;9.40;;;1.20;;
37641;SDS011;23486;51.956;5.888;2023-09-30T13:46:58;4.13;;;0.95;;
37641;SDS011;23486;51.956;5.888;2023-09-30T13:49:24;4.72;;;1.00;;
37641;SDS011;23486;51.956;5.888;2023-09-30T13:51:50;8.73;;;1.23;;
37641;SDS011;23486;51.956;5.888;2023-09-30T13:54:15;8.40;;;1.67;;
37641;SDS011;23486;51.956;5.888;2023-09-30T13:56:41;5.43;;;1.40;;
37641;SDS011;23486;51.956;5.888;2023-09-30T13:59:07;12.30;;;1.67;;
37641;SDS011;23486;51.956;5.888;2023-09-30T14:01:33;7.35;;;1.50;;
37641;SDS011;23486;51.956;5.888;2023-09-30T14:03:59;8.55;;;2.05;;
37641;SDS011;23486;51.956;5.888;2023-09-30T14:06:24;6.85;;;1.58;;
37641;SDS011;23486;51.956;5.888;2023-09-30T14:08:54;7.28;;;2.30;;
37641;SDS011;23486;51.956;5.888;2023-09-30T14:11:20;5.88;;;1.77;;
37641;SDS011;23486;51.956;5.888;2023-09-30T14:13:46;6.97;;;1.42;;
37641;SDS011;23486;51.956;5.888;2023-09-30T14:16:11;9.15;;;2.08;;
37641;SDS011;23486;51.956;5.888;2023-09-30T14:18:37;7.38;;;2.08;;
37641;SDS011;23486;51.956;5.888;2023-09-30T14:21:04;6.88;;;1.92;;
37641;SDS011;23486;51.956;5.888;2023-09-30T14:23:30;5.88;;;1.70;;
37641;SDS011;23486;51.956;5.888;2023-09-30T14:25:56;6.10;;;1.73;;
37641;SDS011;23486;51.956;5.888;2023-09-30T14:28:22;6.15;;;1.75;;
37641;SDS011;23486;51.956;5.888;2023-09-30T14:30:48;6.70;;;1.92;;
37641;SDS011;23486;51.956;5.888;2023-09-30T14:33:15;5.97;;;1.83;;
37641;SDS011;23486;51.956;5.888;2023-09-30T14:35:41;7.70;;;1.90;;
37641;SDS011;23486;51.956;5.888;2023-09-30T14:38:09;7.38;;;2.22;;
37641;SDS011;23486;51.956;5.888;2023-09-30T14:40:37;6.38;;;2.13;;
37641;SDS011;23486;51.956;5.888;2023-09-30T14:43:11;7.32;;;2.10;;
37641;SDS011;23486;51.956;5.888;2023-09-30T14:45:37;6.35;;;1.95;;
37641;SDS011;23486;51.956;5.888;2023-09-30T14:48:04;8.43;;;2.08;;
37641;SDS011;23486;51.956;5.888;2023-09-30T14:50:34;9.38;;;2.38;;
37641;SDS011;23486;51.956;5.888;2023-09-30T14:53:01;6.65;;;2.17;;
37641;SDS011;23486;51.956;5.888;2023-09-30T14:55:33;6.10;;;1.80;;
37641;SDS011;23486;51.956;5.888;2023-09-30T14:57:58;7.25;;;2.22;;
37641;SDS011;23486;51.956;5.888;2023-09-30T15:00:24;8.02;;;2.22;;
37641;SDS011;23486;51.956;5.888;2023-09-30T15:02:51;7.93;;;2.25;;
37641;SDS011;23486;51.956;5.888;2023-09-30T15:05:19;6.22;;;2.17;;
37641;SDS011;23486;51.956;5.888;2023-09-30T15:07:45;6.53;;;1.95;;